WICT2: Wichita River At Wichita Falls, TX

                                SHEF ID:       WICT2     Wichita Rv at Wichita Falls, TX
STATION TYPE:
Regulating: Stage = 18.50, Flow = 5482

PRECIP STAGE RIV-FLOW WTR-TEMP CONDUCT BAT-LOAD
in ft cfs F umho/cm volt
Ccp-Rev Ccp-Rev Ccp-Rev Ccp-Rev Ccp-Rev Ccp-Rev
(America/Chicago)
04/16 00:00 ---- 2.43 65 73.78 779 12.00
04/16 01:00 ---- 2.51 73 73.26 777 12.02
04/16 02:00 ---- 2.85 116 72.75 786 12.01
04/16 03:00 ---- 3.27 176 72.41 794 12.00
04/16 04:00 ---- 3.65 241 72.55 804 11.98
04/16 05:00 ---- 3.95 293 72.70 803 11.97
04/16 06:00 ---- 4.21 342 72.93 797 11.95
04/16 07:00 ---- 4.43 384 72.18 682 11.94
04/16 08:00 ---- 4.60 417 71.74 668 11.98
04/16 09:00 ---- 4.74 445 71.67 702 12.02
04/16 10:00 ---- 4.83 463 71.58 733 12.61
04/16 11:00 ---- 4.91 480 71.58 697 12.96
04/16 12:00 ---- 4.97 493 71.67 663 12.80
04/16 13:00 ---- 5.01 501 71.83 635 12.63
04/16 14:00 ---- 5.05 510 72.03 596 12.56
04/16 15:00 ---- 5.06 512 72.23 551 12.42
04/16 16:00 ---- 5.08 516 72.37 529 12.34
04/16 17:00 ---- 5.07 514 72.43 476 12.34
04/16 18:00 ---- 5.07 514 72.43 413 12.27
04/16 19:00 ---- 5.05 510 72.36 377 12.21
04/16 20:00 ---- 5.03 505 72.23 351 12.14
04/16 21:00 ---- 5.00 499 72.12 345 12.15
04/16 22:00 ---- 4.98 495 72.07 346 12.08
04/16 23:00 ---- 4.94 486 72.05 359 12.11
Data processed at Fri 17Apr2026 04:58 GMT

NOTICE: If you are parsing this page

Please convert to using our Data API. Starting early 2026 we will be migrating to: https://water.usace.army.mil with modern pages rendered in JavaScript. When this migration completes you will no longer be able to scrape this page! CWMSDataAPI (CDA)

Timeseries IDs (TSIDs)

TSIDs used from left to right in the data table
WFAL.Precip-Inc.Total.1Hour.1Hour.Ccp-Rev
WFAL.Stage.Inst.1Hour.0.Ccp-Rev
WFAL.Flow.Inst.1Hour.0.Ccp-Rev
WFAL.Temp-Water.Inst.1Hour.0.Ccp-Rev
WFAL.Cond-Water.Inst.1Hour.0.Ccp-Rev
WFAL.Volt-Battery Load.Inst.1Hour.0.Ccp-Rev

                            

All information presented herein is the property of the government of the United States of America and may be revised or deleted at any time without prior notice. Dissemination of this information without the expressed written consent of the Public Affairs Office, Tulsa District U.S. Army Corps of Engineers is strictly prohibited. These data are gathered electronically and, as presented, have NOT undergone any form of quality control. These data are NOT guaranteed to be valid or correct.